createdAt,value
2022-08-03T00:03:23.754Z,101391.66
2022-08-03T00:08:25.342Z,101387.41
2022-08-03T00:13:27.622Z,101383.06
2022-08-03T00:18:29.123Z,101381.47
2022-08-03T00:23:50.914Z,101391.06
2022-08-03T00:28:52.366Z,101384.09
2022-08-03T00:33:58.311Z,101386.78
2022-08-03T00:39:01.881Z,101387.78
2022-08-03T00:44:03.726Z,101375.63
2022-08-03T00:49:05.275Z,101385.22
2022-08-03T00:54:06.988Z,101377.41
2022-08-03T00:59:10.309Z,101374.81
2022-08-03T01:04:11.911Z,101374.09
2022-08-03T01:09:31.145Z,101367.13
2022-08-03T01:14:44.736Z,101370.63
2022-08-03T01:19:56.292Z,101372.44
2022-08-03T01:25:14.578Z,101366.34
2022-08-03T01:30:16.534Z,101368.13
2022-08-03T01:35:25.041Z,101362.88
2022-08-03T01:40:28.666Z,101356.75
2022-08-03T01:45:34.135Z,101357.59
2022-08-03T01:50:36.447Z,101354.13
2022-08-03T01:55:40.054Z,101362.88
2022-08-03T02:00:42.807Z,101355.88
2022-08-03T02:05:47.191Z,101349.88
2022-08-03T02:10:49.934Z,101345.56
2022-08-03T02:15:53.237Z,101349.97
2022-08-03T02:20:55.895Z,101346.50
2022-08-03T02:26:03.279Z,101342.13
2022-08-03T02:31:15.521Z,101346.53
2022-08-03T02:36:22.288Z,101338.72
2022-08-03T02:41:35.609Z,101338.72
2022-08-03T02:46:44.603Z,101339.66
2022-08-03T02:51:48.419Z,101335.28
2022-08-03T02:56:52.292Z,101331.84
2022-08-03T03:01:55.043Z,101318.78
2022-08-03T03:06:58.126Z,101324.00
2022-08-03T03:12:00.351Z,101315.28
2022-08-03T03:17:03.269Z,101312.56
2022-08-03T03:22:07.010Z,101314.22
2022-08-03T03:27:09.101Z,101313.38
2022-08-03T03:32:11.023Z,101302.09
2022-08-03T03:37:12.625Z,101306.41
2022-08-03T03:42:14.672Z,101301.31
2022-08-03T03:47:16.685Z,101306.47
2022-08-03T03:52:18.335Z,101303.78
2022-08-03T03:57:19.877Z,101307.25
2022-08-03T04:02:21.451Z,101308.91
2022-08-03T04:07:45.940Z,101305.44
2022-08-03T04:12:50.899Z,101304.50
2022-08-03T04:17:57.112Z,101304.50
2022-08-03T04:23:00.507Z,101310.63
2022-08-03T04:28:21.026Z,101315.84
2022-08-03T04:33:29.608Z,101317.59
2022-08-03T04:38:35.681Z,101321.09
2022-08-03T04:43:40.738Z,101321.06
2022-08-03T04:48:44.710Z,101328.88
2022-08-03T04:53:46.727Z,101329.72
2022-08-03T04:58:48.408Z,101335.81
2022-08-03T05:03:49.990Z,101330.50
2022-08-03T05:08:51.718Z,101336.56
2022-08-03T05:13:53.360Z,101347.00
2022-08-03T05:18:55.068Z,101344.28
2022-08-03T05:23:56.575Z,101352.09
2022-08-03T05:28:58.096Z,101347.56
2022-08-03T05:33:59.647Z,101347.38
2022-08-03T05:39:02.899Z,101346.34
2022-08-03T05:44:05.372Z,101346.97
2022-08-03T05:49:07.024Z,101342.44
2022-08-03T05:54:09.561Z,101338.72
2022-08-03T05:59:35.850Z,101341.09
2022-08-03T06:04:32.722Z,101342.59
2022-08-03T06:10:37.132Z,101334.56
2022-08-03T06:14:56.707Z,101343.50
2022-08-03T06:19:58.285Z,101341.50
2022-08-03T06:25:05.030Z,101354.16
2022-08-03T06:30:11.265Z,101345.84
2022-08-03T06:35:12.807Z,101348.41
2022-08-03T06:40:21.900Z,101344.94
2022-08-03T06:45:26.279Z,101343.03
2022-08-03T06:50:34.845Z,101342.41
2022-08-03T06:55:42.289Z,101356.69
2022-08-03T07:00:44.096Z,101349.66
2022-08-03T07:05:49.169Z,101347.00
2022-08-03T07:10:50.660Z,101345.53
2022-08-03T07:15:55.616Z,101345.81
2022-08-03T07:20:58.790Z,101344.34
2022-08-03T07:26:00.534Z,101347.19
2022-08-03T07:31:02.026Z,101353.28
2022-08-03T07:36:04.167Z,101353.91
2022-08-03T07:41:05.711Z,101350.63
2022-08-03T07:46:07.204Z,101357.56
2022-08-03T07:51:09.006Z,101357.34
2022-08-03T07:56:10.798Z,101348.78
2022-08-03T08:01:15.219Z,101349.28
2022-08-03T08:06:17.972Z,101352.22
2022-08-03T08:11:22.309Z,101341.00
2022-08-03T08:16:23.816Z,101339.22
2022-08-03T08:21:25.421Z,101340.63
2022-08-03T08:26:46.919Z,101336.63
2022-08-03T08:31:48.968Z,101337.16
2022-08-03T08:36:50.511Z,101333.81
2022-08-03T08:41:53.360Z,101338.19
2022-08-03T08:46:57.093Z,101333.47
2022-08-03T08:52:01.805Z,101335.59
2022-08-03T08:57:26.794Z,101332.78
2022-08-03T09:02:32.008Z,101324.75
2022-08-03T09:07:34.094Z,101332.81
2022-08-03T09:12:43.777Z,101330.31
2022-08-03T09:17:50.718Z,101322.72
2022-08-03T09:23:44.611Z,101315.94
2022-08-03T09:29:01.491Z,101323.41
2022-08-03T09:34:01.338Z,101315.28
2022-08-03T09:39:06.696Z,101318.56
2022-08-03T09:44:08.901Z,101316.16
2022-08-03T09:49:26.695Z,101312.19
2022-08-03T09:54:29.845Z,101307.59
2022-08-03T09:59:33.318Z,101311.31
2022-08-03T10:04:47.447Z,101310.38
2022-08-03T10:10:31.691Z,101315.16
2022-08-03T10:16:22.134Z,101312.66
2022-08-03T10:20:51.756Z,101313.53
2022-08-03T10:26:01.943Z,101306.72
2022-08-03T10:31:07.930Z,101306.41
2022-08-03T10:36:14.169Z,101298.19
2022-08-03T10:41:20.008Z,101295.06
2022-08-03T10:46:21.705Z,101283.00
2022-08-03T10:51:23.772Z,101277.19
2022-08-03T10:56:54.320Z,101278.63
2022-08-03T11:02:00.420Z,101273.38
2022-08-03T11:07:25.133Z,101270.88
2022-08-03T11:12:31.250Z,101256.53
2022-08-03T11:17:46.378Z,101262.63
2022-08-03T11:23:01.134Z,101254.16
2022-08-03T11:28:30.889Z,101255.78
2022-08-03T11:33:32.598Z,101253.19
2022-08-03T11:38:34.376Z,101262.56
2022-08-03T11:43:37.495Z,101261.31
2022-08-03T11:48:44.918Z,101259.13
2022-08-03T11:53:49.240Z,101254.25
2022-08-03T11:59:10.686Z,101258.78
2022-08-03T12:04:18.061Z,101257.88
2022-08-03T12:09:21.142Z,101258.06
2022-08-03T12:14:50.040Z,101252.19
2022-08-03T12:19:46.779Z,101252.34
2022-08-03T12:24:48.369Z,101251.72
2022-08-03T12:29:58.327Z,101246.31
2022-08-03T12:35:01.852Z,101243.88
2022-08-03T12:40:10.511Z,101237.03
2022-08-03T12:45:23.320Z,101243.56
2022-08-03T12:50:26.731Z,101245.69
2022-08-03T12:55:56.529Z,101243.38
2022-08-03T13:00:56.094Z,101245.97
2022-08-03T13:05:59.190Z,101255.19
2022-08-03T13:11:21.619Z,101239.28
2022-08-03T13:16:23.555Z,101245.13
2022-08-03T13:21:25.257Z,101236.19
2022-08-03T13:26:26.918Z,101247.16
2022-08-03T13:31:28.532Z,101241.47
2022-08-03T13:36:30.584Z,101240.81
2022-08-03T13:41:44.573Z,101239.94
2022-08-03T13:46:46.793Z,101249.47
2022-08-03T13:51:48.439Z,101237.06
2022-08-03T13:56:52.969Z,101244.59
2022-08-03T14:01:55.799Z,101252.25
2022-08-03T14:06:57.549Z,101237.94
2022-08-03T14:12:07.449Z,101237.84
2022-08-03T14:17:13.650Z,101237.53
2022-08-03T14:22:18.001Z,101235.19
2022-08-03T14:27:22.371Z,101228.47
2022-08-03T14:32:24.138Z,101222.44
2022-08-03T14:37:25.907Z,101223.94
2022-08-03T14:42:27.730Z,101215.34
2022-08-03T14:47:29.374Z,101211.69
2022-08-03T14:52:31.475Z,101206.41
2022-08-03T14:57:32.979Z,101199.78
2022-08-03T15:02:34.637Z,101194.66
2022-08-03T15:07:36.250Z,101201.34
2022-08-03T15:12:37.803Z,101203.75
2022-08-03T15:17:42.880Z,101192.97
2022-08-03T15:22:44.569Z,101183.16
2022-08-03T15:28:04.017Z,101189.78
2022-08-03T15:33:06.257Z,101175.78
2022-08-03T15:38:09.645Z,101178.41
2022-08-03T15:43:12.009Z,101179.31
2022-08-03T15:48:13.564Z,101174.97
2022-08-03T15:53:15.582Z,101173.75
2022-08-03T15:59:09.355Z,101167.09
2022-08-03T16:03:39.110Z,101166.84
2022-08-03T16:08:40.743Z,101165.66
2022-08-03T16:14:12.373Z,101161.28
2022-08-03T16:19:05.351Z,101165.63
2022-08-03T16:24:07.381Z,101157.44
2022-08-03T16:29:22.616Z,101153.41
2022-08-03T16:34:25.541Z,101152.00
2022-08-03T16:39:27.456Z,101158.28
2022-08-03T16:44:30.895Z,101153.78
2022-08-03T16:49:53.111Z,101145.59
2022-08-03T16:54:54.922Z,101154.81
2022-08-03T16:59:59.225Z,101156.78
2022-08-03T17:05:00.890Z,101145.66
2022-08-03T17:10:02.577Z,101147.72
2022-08-03T17:15:10.638Z,101144.69
2022-08-03T17:20:15.346Z,101143.22
2022-08-03T17:25:22.199Z,101148.72
2022-08-03T17:31:01.583Z,101142.75
2022-08-03T17:36:05.664Z,101139.75
2022-08-03T17:41:10.878Z,101144.28
2022-08-03T17:46:13.958Z,101147.50
2022-08-03T17:51:21.197Z,101140.81
2022-08-03T17:56:44.913Z,101142.34
2022-08-03T18:02:26.447Z,101141.31
2022-08-03T18:07:45.072Z,101150.00
2022-08-03T18:12:52.814Z,101146.53
2022-08-03T18:18:02.359Z,101147.66
2022-08-03T18:23:05.348Z,101139.97
2022-08-03T18:28:11.726Z,101154.66
2022-08-03T18:34:16.916Z,101150.09
2022-08-03T18:38:40.988Z,101148.72
2022-08-03T18:43:46.141Z,101152.03
2022-08-03T18:49:11.400Z,101159.91
2022-08-03T18:54:58.237Z,101152.88
2022-08-03T19:00:05.551Z,101153.59
2022-08-03T19:05:12.545Z,101152.41
2022-08-03T19:10:16.176Z,101155.84
2022-08-03T19:15:36.779Z,101153.84
2022-08-03T19:20:46.697Z,101165.47
2022-08-03T19:25:48.757Z,101165.84
2022-08-03T19:30:53.694Z,101173.78
2022-08-03T19:35:57.327Z,101176.44
2022-08-03T19:41:03.099Z,101182.66
2022-08-03T19:46:11.642Z,101187.34
2022-08-03T19:51:15.920Z,101197.66
2022-08-03T19:56:23.508Z,101202.13
2022-08-03T20:01:28.155Z,101190.25
2022-08-03T20:06:29.874Z,101204.88
2022-08-03T20:11:33.407Z,101207.41
2022-08-03T20:16:47.482Z,101209.13
2022-08-03T20:21:50.403Z,101207.66
2022-08-03T20:26:55.009Z,101206.06
2022-08-03T20:31:59.284Z,101199.03
2022-08-03T20:37:01.081Z,101202.97
2022-08-03T20:42:04.858Z,101210.88
2022-08-03T20:47:13.320Z,101198.81
2022-08-03T20:52:26.119Z,101192.03
2022-08-03T20:57:28.073Z,101185.81
2022-08-03T21:02:35.048Z,101191.50
2022-08-03T21:08:04.441Z,101192.16
2022-08-03T21:13:19.035Z,101192.38
2022-08-03T21:18:23.639Z,101185.41
2022-08-03T21:23:37.116Z,101182.59
2022-08-03T21:28:49.982Z,101180.97
2022-08-03T21:34:04.640Z,101174.34
2022-08-03T21:39:08.957Z,101183.13
2022-08-03T21:44:10.805Z,101191.13
2022-08-03T21:50:05.120Z,101178.28
2022-08-03T21:54:38.679Z,101176.72
2022-08-03T21:59:45.690Z,101186.41
2022-08-03T22:04:53.348Z,101177.09
2022-08-03T22:10:01.105Z,101172.72
2022-08-03T22:15:04.388Z,101173.25
2022-08-03T22:20:16.598Z,101177.47
2022-08-03T22:25:18.405Z,101180.59
2022-08-03T22:30:20.231Z,101180.53
2022-08-03T22:35:25.461Z,101176.56
2022-08-03T22:40:27.750Z,101180.16
2022-08-03T22:46:06.038Z,101180.38
2022-08-03T22:50:51.157Z,101186.00
2022-08-03T22:55:52.767Z,101173.69
2022-08-03T23:01:14.728Z,101172.28
2022-08-03T23:06:19.147Z,101172.53
2022-08-03T23:11:23.223Z,101176.28
2022-08-03T23:16:29.261Z,101177.19
2022-08-03T23:21:53.180Z,101171.25
2022-08-03T23:26:53.907Z,101173.22
2022-08-03T23:31:56.637Z,101177.72
2022-08-03T23:37:00.817Z,101168.16
2022-08-03T23:42:03.435Z,101159.47
2022-08-03T23:47:05.081Z,101163.13
2022-08-03T23:52:15.637Z,101160.72
2022-08-03T23:57:32.693Z,101150.28
